createdAt,value
2019-05-17T00:00:49.431Z,7.87
2019-05-17T00:03:21.477Z,8.80
2019-05-17T00:05:52.104Z,6.93
2019-05-17T00:08:34.328Z,6.97
2019-05-17T00:11:02.230Z,7.77
2019-05-17T00:13:33.239Z,6.63
2019-05-17T00:16:07.216Z,7.23
2019-05-17T00:18:39.485Z,8.23
2019-05-17T00:21:09.956Z,8.50
2019-05-17T00:23:43.866Z,7.50
2019-05-17T00:26:16.408Z,7.57
2019-05-17T00:28:48.265Z,6.93
2019-05-17T00:31:19.929Z,8.50
2019-05-17T00:33:51.726Z,10.07
2019-05-17T00:36:22.573Z,8.27
2019-05-17T00:38:53.821Z,9.20
2019-05-17T00:41:26.954Z,10.43
2019-05-17T00:43:58.225Z,9.30
2019-05-17T00:46:31.205Z,10.43
2019-05-17T00:49:03.143Z,9.90
2019-05-17T00:51:36.882Z,9.93
2019-05-17T00:54:13.841Z,8.07
2019-05-17T00:56:46.403Z,10.50
2019-05-17T00:59:17.368Z,8.77
2019-05-17T01:01:52.014Z,8.97
2019-05-17T01:04:27.961Z,8.57
2019-05-17T01:06:59.097Z,8.43
2019-05-17T01:09:32.431Z,9.73
2019-05-17T01:12:08.591Z,8.73
2019-05-17T01:14:38.793Z,9.17
2019-05-17T01:17:10.903Z,7.33
2019-05-17T01:19:41.343Z,8.97
2019-05-17T01:22:11.568Z,8.77
2019-05-17T01:24:42.049Z,12.63
2019-05-17T01:27:12.868Z,7.97
2019-05-17T01:29:43.893Z,8.50
2019-05-17T01:32:17.026Z,7.67
2019-05-17T01:34:47.104Z,10.10
2019-05-17T01:37:17.388Z,11.07
2019-05-17T01:39:47.598Z,9.00
2019-05-17T01:42:17.842Z,7.10
2019-05-17T01:44:48.254Z,8.93
2019-05-17T01:47:18.818Z,7.87
2019-05-17T01:49:49.518Z,9.63
2019-05-17T01:52:19.986Z,8.57
2019-05-17T01:54:50.162Z,9.07
2019-05-17T01:57:20.992Z,10.00
2019-05-17T01:59:51.193Z,8.80
2019-05-17T02:02:27.061Z,10.53
2019-05-17T02:04:57.606Z,9.10
2019-05-17T02:07:27.824Z,7.50
2019-05-17T02:09:58.009Z,7.87
2019-05-17T02:12:28.214Z,9.97
2019-05-17T02:14:58.459Z,9.80
2019-05-17T02:17:28.652Z,9.63
2019-05-17T02:19:58.867Z,8.83
2019-05-17T02:22:29.086Z,10.07
2019-05-17T02:24:59.308Z,10.47
2019-05-17T02:27:35.830Z,8.83
2019-05-17T02:30:02.557Z,9.77
2019-05-17T02:32:33.807Z,10.03
2019-05-17T02:35:04.666Z,10.17
2019-05-17T02:37:34.885Z,9.93
2019-05-17T02:40:08.295Z,9.53
2019-05-17T02:42:38.849Z,9.40
2019-05-17T02:45:09.159Z,8.87
2019-05-17T02:47:43.118Z,10.67
2019-05-17T02:50:12.816Z,10.23
2019-05-17T02:52:44.279Z,10.10
2019-05-17T02:55:15.049Z,10.43
2019-05-17T02:57:45.243Z,10.43
2019-05-17T03:00:15.980Z,10.20
2019-05-17T03:02:46.237Z,11.13
2019-05-17T03:05:16.713Z,13.20
2019-05-17T03:07:46.959Z,10.47
2019-05-17T03:10:23.692Z,10.17
2019-05-17T03:12:52.708Z,10.53
2019-05-17T03:15:23.407Z,9.97
2019-05-17T03:17:53.827Z,11.73
2019-05-17T03:20:24.111Z,10.93
2019-05-17T03:22:54.810Z,10.80
2019-05-17T03:25:25.048Z,12.40
2019-05-17T03:27:55.270Z,12.20
2019-05-17T03:30:26.406Z,13.50
2019-05-17T03:32:57.314Z,11.97
2019-05-17T03:35:28.099Z,11.63
2019-05-17T03:37:58.318Z,11.17
2019-05-17T03:40:58.485Z,11.87
2019-05-17T03:43:02.740Z,11.47
2019-05-17T03:45:34.185Z,13.07
2019-05-17T03:48:05.428Z,12.63
2019-05-17T03:50:35.637Z,11.20
2019-05-17T03:53:06.149Z,10.97
2019-05-17T03:55:37.108Z,12.00
2019-05-17T03:58:07.360Z,11.67
2019-05-17T04:00:37.534Z,11.13
2019-05-17T04:03:07.745Z,13.23
2019-05-17T04:05:37.976Z,13.73
2019-05-17T04:08:08.245Z,14.07
2019-05-17T04:10:38.465Z,13.77
2019-05-17T04:13:08.715Z,12.87
2019-05-17T04:15:38.942Z,14.20
2019-05-17T04:18:09.123Z,15.03
2019-05-17T04:20:39.692Z,14.63
2019-05-17T04:23:12.713Z,15.50
2019-05-17T04:25:43.616Z,15.87
2019-05-17T04:28:14.387Z,17.33
2019-05-17T04:30:44.620Z,17.23
2019-05-17T04:33:15.270Z,16.47
2019-05-17T04:35:48.411Z,16.57
2019-05-17T04:38:18.877Z,18.37
2019-05-17T04:40:54.532Z,18.60
2019-05-17T04:43:27.791Z,18.73
2019-05-17T04:45:58.018Z,19.60
2019-05-17T04:48:28.234Z,20.17
2019-05-17T04:50:58.608Z,20.77
2019-05-17T04:53:32.510Z,21.13
2019-05-17T04:56:03.097Z,20.90
2019-05-17T04:58:33.893Z,20.40
2019-05-17T05:01:05.505Z,20.40
2019-05-17T05:03:35.767Z,25.00
2019-05-17T05:06:06.014Z,21.23
2019-05-17T05:08:36.242Z,21.93
2019-05-17T05:11:06.557Z,24.13
2019-05-17T05:13:37.151Z,23.03
2019-05-17T05:16:07.409Z,24.40
2019-05-17T05:18:37.655Z,22.97
2019-05-17T05:21:08.207Z,24.37
2019-05-17T05:23:38.799Z,23.83
2019-05-17T05:26:11.865Z,24.47
2019-05-17T05:28:41.970Z,24.70
2019-05-17T05:31:13.322Z,24.53
2019-05-17T05:33:43.724Z,23.70
2019-05-17T05:36:14.501Z,25.63
2019-05-17T05:38:44.686Z,25.43
2019-05-17T05:41:14.960Z,25.20
2019-05-17T05:43:45.194Z,24.50
2019-05-17T05:46:15.384Z,22.80
2019-05-17T05:48:45.974Z,25.37
2019-05-17T05:51:16.220Z,25.77
2019-05-17T05:53:46.884Z,26.17
2019-05-17T05:56:17.147Z,25.67
2019-05-17T05:58:47.363Z,24.97
2019-05-17T06:01:17.900Z,23.03
2019-05-17T06:03:48.110Z,23.50
2019-05-17T06:06:18.332Z,23.53
2019-05-17T06:08:48.844Z,24.83
2019-05-17T06:11:21.482Z,24.57
2019-05-17T06:13:52.368Z,24.40
2019-05-17T06:16:23.134Z,24.77
2019-05-17T06:18:53.678Z,24.00
2019-05-17T06:21:23.904Z,24.93
2019-05-17T06:23:54.742Z,24.90
2019-05-17T06:26:25.275Z,24.80
2019-05-17T06:28:55.549Z,26.20
2019-05-17T06:31:26.491Z,25.97
2019-05-17T06:33:57.041Z,26.50
2019-05-17T06:36:27.309Z,25.90
2019-05-17T06:38:57.550Z,25.53
2019-05-17T06:41:27.773Z,24.17
2019-05-17T06:43:58.339Z,23.37
2019-05-17T06:46:28.569Z,22.13
2019-05-17T06:48:58.990Z,23.40
2019-05-17T06:51:31.509Z,26.20
2019-05-17T06:54:01.790Z,23.67
2019-05-17T06:56:32.296Z,24.93
2019-05-17T06:59:03.193Z,25.77
2019-05-17T07:01:33.323Z,25.70
2019-05-17T07:04:03.459Z,26.37
2019-05-17T07:06:34.922Z,27.27
2019-05-17T07:09:06.345Z,27.47
2019-05-17T07:11:36.967Z,26.87
2019-05-17T07:14:09.261Z,26.43
2019-05-17T07:16:39.826Z,28.30
2019-05-17T07:19:10.504Z,24.97
2019-05-17T07:21:41.180Z,27.27
2019-05-17T07:24:11.414Z,30.33
2019-05-17T07:26:41.641Z,25.77
2019-05-17T07:29:12.153Z,27.17
2019-05-17T07:31:42.390Z,27.03
2019-05-17T07:34:12.600Z,26.53
2019-05-17T07:36:42.736Z,29.73
2019-05-17T07:39:12.979Z,28.57
2019-05-17T07:41:43.890Z,30.07
2019-05-17T07:44:14.183Z,29.53
2019-05-17T07:46:44.747Z,28.63
2019-05-17T07:49:15.039Z,29.43
2019-05-17T07:51:45.253Z,30.73
2019-05-17T07:54:15.681Z,30.57
2019-05-17T07:56:45.902Z,31.87
2019-05-17T07:59:16.166Z,32.33
2019-05-17T08:01:46.324Z,31.13
2019-05-17T08:04:16.914Z,31.30
2019-05-17T08:06:50.456Z,31.13
2019-05-17T08:09:20.446Z,31.10
2019-05-17T08:11:50.736Z,33.67
2019-05-17T08:14:29.903Z,32.07
2019-05-17T08:16:53.492Z,35.00
2019-05-17T08:19:23.698Z,36.97
2019-05-17T08:21:54.101Z,36.20
2019-05-17T08:24:26.066Z,36.10
2019-05-17T08:26:56.672Z,38.00
2019-05-17T08:29:29.574Z,37.97
2019-05-17T08:32:00.369Z,40.40
2019-05-17T08:34:31.008Z,42.67
2019-05-17T08:37:01.550Z,47.30
2019-05-17T08:39:31.793Z,43.50
2019-05-17T08:42:01.989Z,45.37
2019-05-17T08:44:32.501Z,43.83
2019-05-17T08:47:03.971Z,43.90
2019-05-17T08:49:35.044Z,45.43
2019-05-17T08:52:05.282Z,46.53
2019-05-17T08:54:35.475Z,45.83
2019-05-17T08:57:13.116Z,45.40
2019-05-17T08:59:49.596Z,46.37
2019-05-17T09:02:23.536Z,46.37
2019-05-17T09:04:53.749Z,48.47
2019-05-17T09:07:24.293Z,47.17
2019-05-17T09:09:54.465Z,46.07
2019-05-17T09:12:24.725Z,43.30
2019-05-17T09:14:54.970Z,47.00
2019-05-17T09:17:25.119Z,44.73
2019-05-17T09:19:55.341Z,46.77
2019-05-17T09:22:25.893Z,49.80
2019-05-17T09:24:56.347Z,50.03
2019-05-17T09:27:27.279Z,45.77
2019-05-17T09:29:57.949Z,47.80
2019-05-17T09:32:29.690Z,43.93
2019-05-17T09:35:00.409Z,39.77
2019-05-17T09:37:30.995Z,41.30
2019-05-17T09:40:01.622Z,40.20
2019-05-17T09:42:31.869Z,42.20
2019-05-17T09:45:02.148Z,39.97
2019-05-17T09:47:32.843Z,41.80
2019-05-17T09:50:03.053Z,41.03
2019-05-17T09:52:33.228Z,42.97
2019-05-17T09:55:04.045Z,42.23
2019-05-17T09:57:34.251Z,41.50
2019-05-17T10:00:05.941Z,42.87
2019-05-17T10:02:36.242Z,40.10
2019-05-17T10:05:06.684Z,37.30
2019-05-17T10:07:36.890Z,40.70
2019-05-17T10:10:10.113Z,41.40
2019-05-17T10:12:40.616Z,39.83
2019-05-17T10:15:11.578Z,39.97
2019-05-17T10:17:42.226Z,38.63
2019-05-17T10:20:12.510Z,40.37
2019-05-17T10:22:42.718Z,42.00
2019-05-17T10:25:13.437Z,38.93
2019-05-17T10:27:43.552Z,40.90
2019-05-17T10:30:13.980Z,40.67
2019-05-17T10:32:44.997Z,43.47
2019-05-17T10:35:15.255Z,45.50
2019-05-17T10:37:45.498Z,45.00
2019-05-17T10:40:16.288Z,44.03
2019-05-17T10:42:46.518Z,49.70
2019-05-17T10:45:16.834Z,46.37
2019-05-17T10:47:47.064Z,47.90
2019-05-17T10:50:17.301Z,48.53
2019-05-17T10:52:47.528Z,47.33
2019-05-17T10:55:19.825Z,49.90
2019-05-17T10:57:50.428Z,50.17
2019-05-17T11:00:20.963Z,51.20
2019-05-17T11:02:51.236Z,49.90
2019-05-17T11:05:21.444Z,54.40
2019-05-17T11:07:51.675Z,48.77
2019-05-17T11:10:22.019Z,49.43
2019-05-17T11:12:52.895Z,53.17
2019-05-17T11:15:23.167Z,51.43
2019-05-17T11:17:53.777Z,52.93
2019-05-17T11:20:23.924Z,50.27
2019-05-17T11:22:54.524Z,46.93
2019-05-17T11:25:25.178Z,46.00
2019-05-17T11:27:55.804Z,48.17
2019-05-17T11:30:26.429Z,47.97
2019-05-17T11:32:56.667Z,46.80
2019-05-17T11:35:27.154Z,45.93
2019-05-17T11:37:58.384Z,45.17
2019-05-17T11:40:28.694Z,45.83
2019-05-17T11:42:59.047Z,41.40
2019-05-17T11:45:32.656Z,43.30
2019-05-17T11:48:02.294Z,41.43
2019-05-17T11:50:32.859Z,41.83
2019-05-17T11:53:03.766Z,45.93
2019-05-17T11:55:34.412Z,44.97
2019-05-17T11:58:04.684Z,45.10
2019-05-17T12:00:35.235Z,48.63
2019-05-17T12:03:05.760Z,46.97
2019-05-17T12:05:35.968Z,47.23
2019-05-17T12:08:08.626Z,44.33
2019-05-17T12:10:38.624Z,45.13
2019-05-17T12:13:10.471Z,45.90
2019-05-17T12:15:44.990Z,41.97
2019-05-17T12:18:13.411Z,43.70
2019-05-17T12:20:44.049Z,41.07
2019-05-17T12:23:14.591Z,41.73
2019-05-17T12:25:46.086Z,42.87
2019-05-17T12:28:16.292Z,40.27
2019-05-17T12:30:46.448Z,40.60
2019-05-17T12:33:16.683Z,40.20
2019-05-17T12:35:46.838Z,41.47
2019-05-17T12:38:17.095Z,42.37
2019-05-17T12:40:47.688Z,43.63
2019-05-17T12:43:18.223Z,42.57
2019-05-17T12:46:00.067Z,45.97
2019-05-17T12:48:20.299Z,44.87
2019-05-17T12:50:50.827Z,47.67
2019-05-17T12:53:21.103Z,46.83
2019-05-17T12:55:51.703Z,47.07
2019-05-17T12:58:24.399Z,47.47
2019-05-17T13:00:54.775Z,42.73
2019-05-17T13:03:25.028Z,48.87
2019-05-17T13:06:06.020Z,49.23
2019-05-17T13:08:36.317Z,46.57
2019-05-17T13:11:07.191Z,49.23
2019-05-17T13:13:37.447Z,47.00
2019-05-17T13:16:17.441Z,50.30
2019-05-17T13:18:39.886Z,46.53
2019-05-17T13:21:10.117Z,47.90
2019-05-17T13:23:40.345Z,52.17
2019-05-17T13:26:11.171Z,53.73
2019-05-17T13:28:41.940Z,53.30
2019-05-17T13:31:12.282Z,56.53
2019-05-17T13:33:42.579Z,51.47
2019-05-17T13:36:12.839Z,54.27
2019-05-17T13:38:43.107Z,49.53
2019-05-17T13:41:13.308Z,49.90
2019-05-17T13:43:43.528Z,48.40
2019-05-17T13:46:14.057Z,53.67
2019-05-17T13:48:44.390Z,47.00
2019-05-17T13:51:14.969Z,53.27
2019-05-17T13:53:45.239Z,53.93
2019-05-17T13:56:16.911Z,48.77
2019-05-17T13:58:47.158Z,51.77
2019-05-17T14:01:17.413Z,52.93
2019-05-17T14:03:47.677Z,53.17
2019-05-17T14:06:18.278Z,52.07
2019-05-17T14:08:48.470Z,51.40
2019-05-17T14:11:19.086Z,55.03
2019-05-17T14:13:49.583Z,52.63
2019-05-17T14:16:20.217Z,54.57
2019-05-17T14:18:50.893Z,52.10
2019-05-17T14:21:26.043Z,54.73
2019-05-17T14:23:56.356Z,54.13
2019-05-17T14:26:27.140Z,55.07
2019-05-17T14:28:57.516Z,50.93
2019-05-17T14:31:27.752Z,48.33
2019-05-17T14:34:00.912Z,46.87
2019-05-17T14:36:31.240Z,45.07
2019-05-17T14:39:01.475Z,42.40
2019-05-17T14:41:31.833Z,43.50
2019-05-17T14:44:02.489Z,42.03
2019-05-17T14:46:32.743Z,45.17
2019-05-17T14:49:03.047Z,37.87
2019-05-17T14:51:33.931Z,45.27
2019-05-17T14:54:04.506Z,41.27
2019-05-17T14:56:34.770Z,45.00
2019-05-17T14:59:05.071Z,45.80
2019-05-17T15:01:35.251Z,46.97
2019-05-17T15:04:05.756Z,46.27
2019-05-17T15:06:36.488Z,43.00
2019-05-17T15:09:07.221Z,46.10
2019-05-17T15:11:37.447Z,46.43
2019-05-17T15:14:08.347Z,43.37
2019-05-17T15:16:38.885Z,46.33
2019-05-17T15:19:09.072Z,45.13
2019-05-17T15:21:40.025Z,48.47
2019-05-17T15:24:10.213Z,51.57
2019-05-17T15:26:40.448Z,52.10
2019-05-17T15:29:10.644Z,48.90
2019-05-17T15:31:41.221Z,45.17
2019-05-17T15:34:11.705Z,43.73
2019-05-17T15:36:41.911Z,41.57
2019-05-17T15:39:12.461Z,42.27
2019-05-17T15:41:42.712Z,43.13
2019-05-17T15:44:12.895Z,41.20
2019-05-17T15:46:43.203Z,38.13
2019-05-17T15:49:13.349Z,40.83
2019-05-17T15:51:43.880Z,40.53
2019-05-17T15:54:14.482Z,40.87
2019-05-17T15:56:44.956Z,42.03
2019-05-17T15:59:15.203Z,41.63
2019-05-17T16:01:45.409Z,40.87
2019-05-17T16:04:15.630Z,40.53
2019-05-17T16:06:51.731Z,35.60
2019-05-17T16:09:21.959Z,40.00
2019-05-17T16:11:52.205Z,32.53
2019-05-17T16:14:22.403Z,35.83
2019-05-17T16:17:09.543Z,38.93
2019-05-17T16:19:41.504Z,38.43
2019-05-17T16:22:12.041Z,37.77
2019-05-17T16:24:42.640Z,41.17
2019-05-17T16:27:12.864Z,32.60
2019-05-17T16:29:43.426Z,34.73
2019-05-17T16:32:13.678Z,30.43
2019-05-17T16:34:44.163Z,31.00
2019-05-17T16:37:14.927Z,25.30
2019-05-17T16:39:45.129Z,28.90
2019-05-17T16:42:15.668Z,23.47
2019-05-17T16:44:45.898Z,23.77
2019-05-17T16:47:16.624Z,19.87
2019-05-17T16:49:47.362Z,25.63
2019-05-17T16:52:18.129Z,23.07
2019-05-17T16:54:48.746Z,21.87
2019-05-17T16:57:18.982Z,23.53
2019-05-17T16:59:49.582Z,21.37
2019-05-17T17:02:20.495Z,23.23
2019-05-17T17:04:50.731Z,23.37
2019-05-17T17:07:20.917Z,23.93
2019-05-17T17:09:51.135Z,21.27
2019-05-17T17:12:21.629Z,22.37
2019-05-17T17:14:51.853Z,20.63
2019-05-17T17:17:22.094Z,19.40
2019-05-17T17:19:52.608Z,17.10
2019-05-17T17:22:23.415Z,20.03
2019-05-17T17:24:53.631Z,18.83
2019-05-17T17:27:31.911Z,19.90
2019-05-17T17:30:02.542Z,18.57
2019-05-17T17:32:32.819Z,17.60
2019-05-17T17:35:03.500Z,16.97
2019-05-17T17:37:33.722Z,16.50
2019-05-17T17:40:03.940Z,17.47
2019-05-17T17:42:34.375Z,17.50
2019-05-17T17:45:05.443Z,16.90
2019-05-17T17:47:35.702Z,16.80
2019-05-17T17:50:06.617Z,18.43
2019-05-17T17:52:36.817Z,17.50
2019-05-17T17:55:07.378Z,16.57
2019-05-17T17:57:37.640Z,18.60
2019-05-17T18:00:09.729Z,16.53
2019-05-17T18:02:40.391Z,18.57
2019-05-17T18:05:10.882Z,14.83
2019-05-17T18:07:41.130Z,14.90
2019-05-17T18:10:13.291Z,16.97
2019-05-17T18:12:43.522Z,14.13
2019-05-17T18:15:14.276Z,14.30
2019-05-17T18:17:44.982Z,16.37
2019-05-17T18:20:15.540Z,18.00
2019-05-17T18:22:46.212Z,17.33
2019-05-17T18:25:16.435Z,16.57
2019-05-17T18:27:47.079Z,16.13
2019-05-17T18:30:35.245Z,15.83
2019-05-17T18:33:05.716Z,17.10
2019-05-17T18:35:36.808Z,15.73
2019-05-17T18:38:07.997Z,19.70
2019-05-17T18:40:38.215Z,18.43
2019-05-17T18:43:08.493Z,18.93
2019-05-17T18:45:39.144Z,16.00
2019-05-17T18:48:09.820Z,14.37
2019-05-17T18:50:40.075Z,18.00
2019-05-17T18:53:16.703Z,18.70
2019-05-17T18:55:43.387Z,16.97
2019-05-17T18:58:13.577Z,18.70
2019-05-17T19:00:43.931Z,20.53
2019-05-17T19:03:14.173Z,18.50
2019-05-17T19:05:45.414Z,18.97
2019-05-17T19:08:16.224Z,15.97
2019-05-17T19:10:46.523Z,16.93
2019-05-17T19:13:17.083Z,16.90
2019-05-17T19:15:47.989Z,16.90
2019-05-17T19:18:18.790Z,19.03
2019-05-17T19:20:49.412Z,17.37
2019-05-17T19:23:19.643Z,18.83
2019-05-17T19:25:49.907Z,15.53
2019-05-17T19:28:20.152Z,17.63
2019-05-17T19:30:50.730Z,17.37
2019-05-17T19:33:20.981Z,15.90
2019-05-17T19:35:51.231Z,15.90
2019-05-17T19:38:21.718Z,17.87
2019-05-17T19:40:52.267Z,17.53
2019-05-17T19:43:22.889Z,18.33
2019-05-17T19:45:53.142Z,16.50
2019-05-17T19:48:23.355Z,17.03
2019-05-17T19:50:53.631Z,16.97
2019-05-17T19:53:24.176Z,18.40
2019-05-17T19:55:54.412Z,15.30
2019-05-17T19:58:24.947Z,19.30
2019-05-17T20:00:55.559Z,16.53
2019-05-17T20:03:25.801Z,16.23
2019-05-17T20:05:56.418Z,15.07
2019-05-17T20:08:27.077Z,15.83
2019-05-17T20:10:57.326Z,15.70
2019-05-17T20:13:27.597Z,15.90
2019-05-17T20:15:58.118Z,15.63
2019-05-17T20:18:28.389Z,15.87
2019-05-17T20:20:58.644Z,18.30
2019-05-17T20:23:29.177Z,16.07
2019-05-17T20:25:59.402Z,16.90
2019-05-17T20:28:29.604Z,16.57
2019-05-17T20:31:00.099Z,17.23
2019-05-17T20:33:30.294Z,17.87
2019-05-17T20:36:01.771Z,18.95
2019-05-17T20:38:32.682Z,18.40
2019-05-17T20:41:03.605Z,18.20
2019-05-17T20:43:34.287Z,18.03
2019-05-17T20:46:04.620Z,18.13
2019-05-17T20:48:35.517Z,18.50
2019-05-17T20:51:05.733Z,20.63
2019-05-17T20:53:36.294Z,20.37
2019-05-17T20:56:06.651Z,19.67
2019-05-17T20:58:37.241Z,18.70
2019-05-17T21:01:07.531Z,20.23
2019-05-17T21:03:37.842Z,20.27
2019-05-17T21:06:08.048Z,17.87
2019-05-17T21:08:46.149Z,20.97
2019-05-17T21:11:10.516Z,18.27
2019-05-17T21:13:41.010Z,20.73
2019-05-17T21:16:11.561Z,17.03
2019-05-17T21:18:41.824Z,18.97
2019-05-17T21:21:12.305Z,18.43
2019-05-17T21:23:43.199Z,19.27
2019-05-17T21:26:13.429Z,24.73
2019-05-17T21:28:46.908Z,21.60
2019-05-17T21:31:16.069Z,19.80
2019-05-17T21:33:46.961Z,19.53
2019-05-17T21:36:17.125Z,17.97
2019-05-17T21:38:47.349Z,19.43
2019-05-17T21:41:17.545Z,18.37
2019-05-17T21:43:48.608Z,17.77
2019-05-17T21:46:18.848Z,20.27
2019-05-17T21:48:49.765Z,19.17
2019-05-17T21:51:20.367Z,18.40
2019-05-17T21:53:51.003Z,17.97
2019-05-17T21:56:21.625Z,19.83
2019-05-17T21:58:51.880Z,20.70
2019-05-17T22:01:25.503Z,19.03
2019-05-17T22:03:55.756Z,20.23
2019-05-17T22:06:26.284Z,20.83
2019-05-17T22:08:56.493Z,19.87
2019-05-17T22:11:27.200Z,20.17
2019-05-17T22:13:57.364Z,20.73
2019-05-17T22:16:34.975Z,19.10
2019-05-17T22:19:05.541Z,22.70
2019-05-17T22:21:36.055Z,21.33
2019-05-17T22:24:06.340Z,22.40
2019-05-17T22:26:36.556Z,22.73
2019-05-17T22:29:07.077Z,24.83
2019-05-17T22:31:39.021Z,23.70
2019-05-17T22:34:09.316Z,22.57
2019-05-17T22:36:39.550Z,24.17
2019-05-17T22:39:09.771Z,22.43
2019-05-17T22:41:40.314Z,28.47
2019-05-17T22:44:10.550Z,24.77
2019-05-17T22:46:40.775Z,26.40
2019-05-17T22:49:11.023Z,23.53
2019-05-17T22:51:41.549Z,24.67
2019-05-17T22:54:11.730Z,27.10
2019-05-17T22:56:41.992Z,29.20
2019-05-17T22:59:12.526Z,27.10
2019-05-17T23:01:42.770Z,25.57
2019-05-17T23:04:13.004Z,26.73
2019-05-17T23:06:43.459Z,27.33
2019-05-17T23:09:13.990Z,30.17
2019-05-17T23:11:44.355Z,39.80
2019-05-17T23:14:14.620Z,45.17
2019-05-17T23:16:51.543Z,38.40
2019-05-17T23:19:16.666Z,37.73
2019-05-17T23:21:47.575Z,33.97
2019-05-17T23:24:18.375Z,35.57
2019-05-17T23:26:48.619Z,38.10
2019-05-17T23:29:19.208Z,36.97
2019-05-17T23:31:49.337Z,37.37
2019-05-17T23:34:19.577Z,38.77
2019-05-17T23:36:49.850Z,35.90
2019-05-17T23:39:20.099Z,32.90
2019-05-17T23:41:50.281Z,35.73
2019-05-17T23:44:20.485Z,30.77
2019-05-17T23:47:04.792Z,34.43
2019-05-17T23:49:23.517Z,33.13
2019-05-17T23:51:54.388Z,35.70
2019-05-17T23:54:25.235Z,30.80
2019-05-17T23:56:56.196Z,37.40
2019-05-17T23:59:26.878Z,37.67
